createdAt,value
2017-11-26T00:00:47.688Z,2.67
2017-11-26T00:03:17.194Z,2.47
2017-11-26T00:05:46.703Z,2.80
2017-11-26T00:08:16.212Z,2.30
2017-11-26T00:10:45.106Z,2.67
2017-11-26T00:13:14.089Z,5.87
2017-11-26T00:15:42.879Z,2.40
2017-11-26T00:18:11.879Z,2.40
2017-11-26T00:20:40.761Z,2.30
2017-11-26T00:23:09.453Z,2.27
2017-11-26T00:25:38.344Z,3.27
2017-11-26T00:28:07.136Z,3.33
2017-11-26T00:30:35.816Z,2.00
2017-11-26T00:33:04.669Z,2.27
2017-11-26T00:35:33.598Z,2.20
2017-11-26T00:38:02.501Z,5.43
2017-11-26T00:40:31.175Z,2.23
2017-11-26T00:43:00.070Z,2.70
2017-11-26T00:45:28.909Z,2.47
2017-11-26T00:47:57.847Z,2.27
2017-11-26T00:50:26.738Z,2.70
2017-11-26T00:52:55.422Z,2.50
2017-11-26T00:55:24.315Z,2.47
2017-11-26T00:57:53.206Z,2.50
2017-11-26T01:00:21.894Z,2.20
2017-11-26T01:02:50.783Z,3.90
2017-11-26T01:05:19.675Z,3.47
2017-11-26T01:07:48.360Z,6.60
2017-11-26T01:10:17.047Z,4.27
2017-11-26T01:12:45.952Z,3.33
2017-11-26T01:15:14.621Z,3.97
2017-11-26T01:17:43.308Z,3.10
2017-11-26T01:20:12.200Z,2.60
2017-11-26T01:22:43.755Z,2.80
2017-11-26T01:25:12.646Z,2.70
2017-11-26T01:27:41.279Z,2.40
2017-11-26T01:30:10.228Z,2.20
2017-11-26T01:32:39.115Z,2.30
2017-11-26T01:35:07.808Z,3.10
2017-11-26T01:37:36.499Z,2.27
2017-11-26T01:40:05.400Z,4.20
2017-11-26T01:42:34.063Z,4.87
2017-11-26T01:45:02.754Z,2.20
2017-11-26T01:47:31.653Z,2.60
2017-11-26T01:50:00.325Z,2.63
2017-11-26T01:52:29.217Z,2.30
2017-11-26T01:54:58.007Z,2.13
2017-11-26T01:57:26.706Z,2.40
2017-11-26T01:59:56.401Z,2.60
2017-11-26T02:02:25.292Z,2.77
2017-11-26T02:04:54.125Z,2.00
2017-11-26T02:07:22.869Z,3.57
2017-11-26T02:09:51.980Z,2.30
2017-11-26T02:12:20.873Z,2.23
2017-11-26T02:14:49.707Z,5.67
2017-11-26T02:17:18.641Z,2.50
2017-11-26T02:19:47.742Z,2.30
2017-11-26T02:22:17.461Z,2.97
2017-11-26T02:24:46.441Z,2.60
2017-11-26T02:27:15.330Z,2.23
2017-11-26T02:29:44.231Z,2.07
2017-11-26T02:32:24.689Z,1.87
2017-11-26T02:35:05.152Z,2.10
2017-11-26T02:37:34.247Z,2.47
2017-11-26T02:40:03.149Z,2.70
2017-11-26T02:42:32.026Z,2.17
2017-11-26T02:45:00.915Z,2.70
2017-11-26T02:47:30.013Z,2.40
2017-11-26T02:49:58.903Z,3.03
2017-11-26T02:52:28.613Z,2.70
2017-11-26T02:54:57.505Z,3.30
2017-11-26T02:57:27.215Z,3.97
2017-11-26T02:59:56.924Z,2.60
2017-11-26T03:02:27.044Z,2.13
2017-11-26T03:04:56.555Z,2.53
2017-11-26T03:07:25.242Z,3.93
2017-11-26T03:09:54.127Z,4.63
2017-11-26T03:12:22.974Z,2.43
2017-11-26T03:14:51.806Z,2.70
2017-11-26T03:17:20.699Z,2.70
2017-11-26T03:19:49.584Z,3.70
2017-11-26T03:22:18.476Z,2.60
2017-11-26T03:24:47.104Z,2.37
2017-11-26T03:27:16.054Z,2.17
2017-11-26T03:29:44.947Z,2.17
2017-11-26T03:32:13.733Z,3.33
2017-11-26T03:34:42.624Z,2.00
2017-11-26T03:37:12.338Z,2.40
2017-11-26T03:39:41.840Z,2.27
2017-11-26T03:42:10.732Z,2.17
2017-11-26T03:44:40.237Z,2.17
2017-11-26T03:47:09.070Z,2.30
2017-11-26T03:49:37.917Z,1.83
2017-11-26T03:52:07.001Z,2.13
2017-11-26T03:54:36.313Z,1.93
2017-11-26T03:57:05.108Z,2.50
2017-11-26T03:59:33.789Z,2.30
2017-11-26T04:02:02.480Z,2.00
2017-11-26T04:04:31.796Z,2.00
2017-11-26T04:07:00.665Z,2.87
2017-11-26T04:09:29.559Z,2.70
2017-11-26T04:11:58.654Z,2.50
2017-11-26T04:14:27.751Z,2.00
2017-11-26T04:16:56.958Z,2.23
2017-11-26T04:19:25.736Z,2.33
2017-11-26T04:21:54.628Z,2.30
2017-11-26T04:24:23.316Z,1.90
2017-11-26T04:26:52.215Z,2.10
2017-11-26T04:29:22.117Z,2.07
2017-11-26T04:31:51.315Z,2.10
2017-11-26T04:34:20.414Z,2.07
2017-11-26T04:36:50.233Z,2.13
2017-11-26T04:39:19.016Z,2.80
2017-11-26T04:41:47.805Z,2.33
2017-11-26T04:44:16.697Z,2.20
2017-11-26T04:46:45.789Z,1.80
2017-11-26T04:49:15.091Z,2.50
2017-11-26T04:51:43.980Z,3.03
2017-11-26T04:54:13.284Z,2.30
2017-11-26T04:56:42.378Z,2.50
2017-11-26T04:59:11.882Z,2.40
2017-11-26T05:01:40.985Z,2.53
2017-11-26T05:04:10.665Z,2.13
2017-11-26T05:06:39.930Z,2.50
2017-11-26T05:09:08.880Z,1.93
2017-11-26T05:11:39.023Z,2.00
2017-11-26T05:14:08.927Z,2.60
2017-11-26T05:16:37.807Z,2.70
2017-11-26T05:19:07.107Z,2.17
2017-11-26T05:21:36.211Z,1.97
2017-11-26T05:24:05.185Z,2.53
2017-11-26T05:26:34.279Z,3.07
2017-11-26T05:29:04.133Z,4.40
2017-11-26T05:31:34.068Z,2.73
2017-11-26T05:34:03.954Z,2.40
2017-11-26T05:36:34.817Z,2.47
2017-11-26T05:39:03.865Z,2.10
2017-11-26T05:41:32.963Z,2.17
2017-11-26T05:44:01.852Z,2.63
2017-11-26T05:46:30.999Z,2.33
2017-11-26T05:48:59.842Z,2.23
2017-11-26T05:51:28.917Z,2.60
2017-11-26T05:53:58.035Z,2.23
2017-11-26T05:56:27.124Z,2.23
2017-11-26T05:59:01.758Z,2.13
2017-11-26T06:01:30.644Z,2.03
2017-11-26T06:04:00.156Z,2.00
2017-11-26T06:06:29.051Z,2.17
2017-11-26T06:08:57.935Z,2.37
2017-11-26T06:11:26.784Z,2.37
2017-11-26T06:13:55.718Z,2.17
2017-11-26T06:16:24.607Z,2.30
2017-11-26T06:18:53.301Z,2.47
2017-11-26T06:21:22.182Z,2.30
2017-11-26T06:23:51.169Z,2.00
2017-11-26T06:26:20.859Z,2.13
2017-11-26T06:28:53.360Z,2.90
2017-11-26T06:31:25.012Z,2.50
2017-11-26T06:33:59.844Z,2.27
2017-11-26T06:36:28.532Z,1.90
2017-11-26T06:38:57.218Z,2.30
2017-11-26T06:41:26.108Z,2.30
2017-11-26T06:43:55.003Z,2.40
2017-11-26T06:46:24.095Z,2.07
2017-11-26T06:48:52.989Z,2.70
2017-11-26T06:51:21.887Z,2.97
2017-11-26T06:53:50.770Z,2.50
2017-11-26T06:56:19.636Z,2.10
2017-11-26T06:58:48.349Z,2.00
2017-11-26T07:01:17.243Z,2.70
2017-11-26T07:03:46.131Z,2.40
2017-11-26T07:06:15.020Z,2.83
2017-11-26T07:08:43.910Z,2.20
2017-11-26T07:11:12.904Z,2.40
2017-11-26T07:13:41.799Z,6.03
2017-11-26T07:16:10.689Z,2.60
2017-11-26T07:18:39.581Z,2.73
2017-11-26T07:21:08.472Z,2.40
2017-11-26T07:23:37.154Z,3.43
2017-11-26T07:26:05.841Z,2.63
2017-11-26T07:28:34.740Z,3.30
2017-11-26T07:31:03.626Z,2.80
2017-11-26T07:33:32.418Z,2.40
2017-11-26T07:36:01.106Z,2.27
2017-11-26T07:38:29.785Z,2.47
2017-11-26T07:40:58.678Z,2.50
2017-11-26T07:43:27.363Z,2.17
2017-11-26T07:45:56.873Z,2.93
2017-11-26T07:48:25.769Z,2.40
2017-11-26T07:50:54.659Z,2.57
2017-11-26T07:53:23.340Z,3.17
2017-11-26T07:55:52.029Z,2.70
2017-11-26T07:58:21.677Z,2.20
2017-11-26T08:00:50.374Z,2.43
2017-11-26T08:03:19.104Z,3.40
2017-11-26T08:05:47.789Z,2.33
2017-11-26T08:08:16.486Z,2.60
2017-11-26T08:10:45.374Z,2.80
2017-11-26T08:13:14.005Z,2.50
2017-11-26T08:15:42.741Z,2.73
2017-11-26T08:18:11.630Z,2.97
2017-11-26T08:20:40.526Z,2.33
2017-11-26T08:23:09.418Z,2.30
2017-11-26T08:25:38.097Z,4.77
2017-11-26T08:28:06.659Z,2.50
2017-11-26T08:30:35.471Z,2.60
2017-11-26T08:33:04.163Z,2.80
2017-11-26T08:35:32.855Z,3.03
2017-11-26T08:38:01.536Z,3.20
2017-11-26T08:40:30.427Z,5.77
2017-11-26T08:42:59.110Z,2.80
2017-11-26T08:45:28.015Z,2.60
2017-11-26T08:47:57.051Z,4.80
2017-11-26T08:50:25.989Z,2.87
2017-11-26T08:52:54.813Z,3.23
2017-11-26T08:55:23.565Z,2.63
2017-11-26T08:57:52.459Z,2.47
2017-11-26T09:00:22.269Z,2.73
2017-11-26T09:02:51.324Z,3.20
2017-11-26T09:05:20.317Z,2.90
2017-11-26T09:07:51.648Z,2.40
2017-11-26T09:10:20.548Z,3.27
2017-11-26T09:12:50.204Z,2.83
2017-11-26T09:15:19.518Z,4.93
2017-11-26T09:17:49.215Z,2.60
2017-11-26T09:20:17.931Z,3.27
2017-11-26T09:22:46.893Z,2.90
2017-11-26T09:25:15.686Z,2.43
2017-11-26T09:27:44.575Z,3.20
2017-11-26T09:30:13.469Z,2.70
2017-11-26T09:32:42.152Z,2.57
2017-11-26T09:35:11.043Z,2.60
2017-11-26T09:37:40.354Z,3.00
2017-11-26T09:40:09.233Z,2.97
2017-11-26T09:42:38.124Z,2.73
2017-11-26T09:45:07.015Z,3.50
2017-11-26T09:47:35.703Z,3.97
2017-11-26T09:50:04.431Z,4.27
2017-11-26T09:52:33.595Z,3.70
2017-11-26T09:55:03.321Z,3.93
2017-11-26T09:57:32.200Z,3.13
2017-11-26T10:00:00.974Z,2.87
2017-11-26T10:02:29.671Z,3.33
2017-11-26T10:04:58.554Z,3.17
2017-11-26T10:07:27.449Z,3.50
2017-11-26T10:09:56.148Z,3.20
2017-11-26T10:12:25.232Z,2.93
2017-11-26T10:14:54.741Z,4.40
2017-11-26T11:19:49.348Z,3.50
2017-11-26T11:22:18.238Z,2.90
2017-11-26T11:24:47.127Z,3.00
2017-11-26T11:27:16.838Z,3.87
2017-11-26T11:29:45.540Z,3.13
2017-11-26T11:32:14.219Z,3.70
2017-11-26T11:34:43.110Z,3.53
2017-11-26T11:37:12.006Z,3.63
2017-11-26T11:39:40.683Z,3.60
2017-11-26T11:42:09.343Z,3.57
2017-11-26T11:44:38.054Z,3.50
2017-11-26T11:47:06.740Z,3.40
2017-11-26T11:49:35.628Z,3.60
2017-11-26T11:52:04.525Z,3.50
2017-11-26T11:54:34.229Z,4.83
2017-11-26T11:57:03.148Z,2.80
2017-11-26T11:59:32.022Z,2.70
2017-11-26T12:02:00.913Z,3.50
2017-11-26T12:04:29.902Z,4.03
2017-11-26T12:06:58.790Z,3.17
2017-11-26T12:09:27.890Z,2.27
2017-11-26T12:11:56.988Z,3.17
2017-11-26T12:14:26.162Z,3.80
2017-11-26T12:16:55.069Z,2.90
2017-11-26T12:19:24.578Z,4.07
2017-11-26T12:21:53.466Z,3.50
2017-11-26T12:24:22.390Z,2.90
2017-11-26T12:26:52.090Z,5.30
2017-11-26T12:29:20.958Z,4.77
2017-11-26T12:31:49.950Z,2.93
2017-11-26T12:34:18.842Z,3.97
2017-11-26T12:36:47.748Z,3.30
2017-11-26T12:39:16.624Z,3.57
2017-11-26T12:41:46.325Z,3.33
2017-11-26T12:44:15.226Z,3.70
2017-11-26T12:46:44.117Z,4.13
2017-11-26T12:49:13.006Z,6.70
2017-11-26T12:51:42.102Z,6.37
2017-11-26T12:54:10.992Z,4.60
2017-11-26T12:56:39.883Z,5.10
2017-11-26T12:59:08.774Z,5.77
2017-11-26T13:01:37.669Z,4.37
2017-11-26T13:04:06.557Z,4.10
2017-11-26T13:06:35.449Z,3.97
2017-11-26T13:09:04.342Z,5.17
2017-11-26T13:11:33.229Z,4.73
2017-11-26T13:14:02.939Z,4.10
2017-11-26T13:19:30.014Z,4.80
2017-11-26T13:21:59.003Z,4.70
2017-11-26T13:24:27.896Z,12.60
2017-11-26T13:26:56.992Z,5.93
2017-11-26T13:29:25.880Z,5.57
2017-11-26T13:31:54.978Z,4.10
2017-11-26T13:34:23.869Z,4.40
2017-11-26T13:36:53.578Z,6.30
2017-11-26T13:39:22.471Z,6.20
2017-11-26T13:41:52.382Z,6.03
2017-11-26T13:44:21.619Z,5.30
2017-11-26T13:46:50.586Z,4.77
2017-11-26T13:49:20.285Z,5.63
2017-11-26T13:51:49.997Z,5.10
2017-11-26T13:54:19.707Z,5.33
2017-11-26T13:56:48.595Z,4.60
2017-11-26T13:59:18.307Z,8.30
2017-11-26T14:01:48.228Z,6.60
2017-11-26T14:04:17.931Z,5.40
2017-11-26T14:06:47.169Z,7.83
2017-11-26T14:09:16.006Z,6.17
2017-11-26T14:11:44.825Z,5.33
2017-11-26T14:14:14.456Z,5.20
2017-11-26T14:16:43.308Z,4.43
2017-11-26T14:19:13.030Z,4.60
2017-11-26T14:21:42.020Z,4.50
2017-11-26T14:24:11.108Z,5.47
2017-11-26T14:26:39.999Z,4.10
2017-11-26T14:29:08.890Z,4.30
2017-11-26T14:31:38.191Z,4.07
2017-11-26T14:34:08.105Z,3.80
2017-11-26T14:36:36.997Z,6.10
2017-11-26T14:39:05.887Z,4.00
2017-11-26T14:41:35.597Z,3.70
2017-11-26T14:44:05.308Z,4.30
2017-11-26T14:46:34.408Z,3.30
2017-11-26T14:49:03.507Z,3.57
2017-11-26T14:51:32.390Z,3.20
2017-11-26T14:54:01.486Z,2.80
2017-11-26T14:56:30.384Z,3.23
2017-11-26T14:58:59.268Z,2.93
2017-11-26T15:01:28.947Z,4.33
2017-11-26T15:03:58.176Z,3.30
2017-11-26T15:06:27.171Z,4.90
2017-11-26T15:08:56.830Z,3.07
2017-11-26T15:11:25.772Z,8.60
2017-11-26T15:13:55.482Z,3.53
2017-11-26T15:16:25.206Z,4.27
2017-11-26T15:18:54.491Z,3.20
2017-11-26T15:21:23.382Z,4.10
2017-11-26T15:23:53.093Z,3.17
2017-11-26T15:26:22.821Z,4.30
2017-11-26T15:28:52.721Z,3.97
2017-11-26T15:31:22.429Z,3.60
2017-11-26T15:33:52.551Z,3.20
2017-11-26T15:36:21.850Z,3.53
2017-11-26T15:38:51.559Z,3.00
2017-11-26T15:41:21.294Z,4.33
2017-11-26T15:43:50.367Z,3.27
2017-11-26T15:46:20.079Z,2.63
2017-11-26T15:48:49.786Z,2.97
2017-11-26T15:51:19.913Z,2.63
2017-11-26T15:53:49.191Z,3.20
2017-11-26T15:56:18.946Z,3.20
2017-11-26T15:58:48.775Z,4.13
2017-11-26T16:01:17.871Z,3.40
2017-11-26T16:03:46.824Z,5.60
2017-11-26T16:06:16.529Z,3.60
2017-11-26T16:08:45.319Z,2.87
2017-11-26T16:11:14.211Z,3.10
2017-11-26T16:13:43.099Z,3.87
2017-11-26T16:16:11.933Z,3.67
2017-11-26T16:18:40.881Z,3.40
2017-11-26T16:21:09.772Z,3.03
2017-11-26T16:23:38.870Z,6.50
2017-11-26T16:26:07.760Z,2.90
2017-11-26T16:28:36.651Z,2.63
2017-11-26T16:31:06.360Z,2.70
2017-11-26T16:33:35.251Z,2.63
2017-11-26T16:36:04.143Z,2.80
2017-11-26T16:38:33.856Z,3.00
2017-11-26T16:41:02.743Z,3.57
2017-11-26T16:43:31.635Z,2.40
2017-11-26T16:46:01.351Z,3.73
2017-11-26T16:48:30.194Z,3.47
2017-11-26T16:50:59.127Z,3.00
2017-11-26T16:53:28.020Z,3.73
2017-11-26T16:55:56.933Z,2.83
2017-11-26T16:58:26.852Z,3.80
2017-11-26T17:00:56.739Z,3.90
2017-11-26T17:03:25.640Z,4.30
2017-11-26T17:05:55.795Z,4.70
2017-11-26T17:08:25.055Z,4.00
2017-11-26T17:10:53.943Z,3.50
2017-11-26T17:13:23.047Z,5.47
2017-11-26T17:15:51.931Z,3.93
2017-11-26T17:18:22.053Z,3.83
2017-11-26T17:20:51.359Z,3.00
2017-11-26T17:23:21.274Z,3.07
2017-11-26T17:25:50.977Z,5.60
2017-11-26T17:28:20.034Z,4.33
2017-11-26T17:30:49.137Z,3.70
2017-11-26T17:33:18.091Z,4.43
2017-11-26T17:35:47.056Z,2.97
2017-11-26T17:38:16.544Z,4.20
2017-11-26T17:40:46.164Z,3.57
2017-11-26T17:43:15.272Z,3.30
2017-11-26T17:45:44.328Z,5.03
2017-11-26T17:48:13.460Z,4.70
2017-11-26T17:50:43.161Z,4.13
2017-11-26T17:53:12.053Z,5.50
2017-11-26T17:55:41.155Z,8.93
2017-11-26T17:58:10.155Z,4.90
2017-11-26T18:00:39.137Z,4.63
2017-11-26T18:03:08.233Z,5.27
2017-11-26T18:05:37.125Z,4.70
2017-11-26T18:08:06.018Z,4.73
2017-11-26T18:10:34.906Z,6.37
2017-11-26T18:13:03.797Z,4.20
2017-11-26T18:15:32.689Z,3.60
2017-11-26T18:18:01.797Z,5.67
2017-11-26T18:20:30.865Z,5.23
2017-11-26T18:22:59.770Z,4.67
2017-11-26T18:25:28.838Z,3.43
2017-11-26T18:27:57.555Z,4.30
2017-11-26T18:30:26.237Z,5.07
2017-11-26T18:32:55.131Z,4.80
2017-11-26T18:35:23.820Z,4.83
2017-11-26T18:37:52.710Z,8.47
2017-11-26T18:40:21.401Z,6.57
2017-11-26T18:42:50.082Z,4.33
2017-11-26T18:45:18.973Z,5.87
2017-11-26T18:47:47.863Z,9.87
2017-11-26T18:50:17.571Z,5.13
2017-11-26T18:52:46.299Z,6.40
2017-11-26T18:55:15.303Z,7.37
2017-11-26T18:57:44.001Z,5.90
2017-11-26T19:00:12.725Z,5.60
2017-11-26T19:02:41.624Z,5.50
2017-11-26T19:05:10.508Z,4.80
2017-11-26T19:07:39.194Z,5.20
2017-11-26T19:10:08.085Z,6.03
2017-11-26T19:12:36.773Z,6.33
2017-11-26T19:15:05.481Z,6.33
2017-11-26T19:17:34.351Z,5.20
2017-11-26T19:20:03.035Z,6.30
2017-11-26T19:22:31.936Z,5.57
2017-11-26T19:25:00.821Z,4.97
2017-11-26T19:27:29.719Z,5.57
2017-11-26T19:29:58.600Z,5.50
2017-11-26T19:32:27.519Z,5.50
2017-11-26T19:34:57.200Z,5.77
2017-11-26T19:37:26.094Z,8.20
2017-11-26T19:39:55.302Z,5.43
2017-11-26T19:42:24.090Z,4.70
2017-11-26T19:44:52.969Z,4.50
2017-11-26T19:47:21.863Z,5.50
2017-11-26T19:49:50.756Z,5.83
2017-11-26T19:52:19.435Z,4.80
2017-11-26T19:54:48.333Z,6.17
2017-11-26T19:57:17.220Z,4.80
2017-11-26T19:59:46.111Z,8.70
2017-11-26T20:02:15.005Z,8.27
2017-11-26T20:04:44.715Z,6.40
2017-11-26T20:07:14.216Z,6.20
2017-11-26T20:09:43.111Z,6.27
2017-11-26T20:12:12.007Z,6.20
2017-11-26T20:14:49.701Z,5.90
2017-11-26T20:17:18.589Z,6.60
2017-11-26T20:19:47.485Z,10.20
2017-11-26T20:22:16.369Z,8.53
2017-11-26T20:24:45.067Z,8.47
2017-11-26T20:27:13.745Z,8.70
2017-11-26T20:29:42.634Z,7.90
2017-11-26T20:32:11.523Z,7.43
2017-11-26T20:34:40.421Z,7.40
2017-11-26T20:37:09.410Z,7.30
2017-11-26T20:39:38.195Z,7.33
2017-11-26T20:42:07.086Z,7.80
2017-11-26T20:44:36.390Z,7.27
2017-11-26T20:47:05.078Z,8.43
2017-11-26T20:49:33.770Z,8.70
2017-11-26T20:52:02.654Z,7.63
2017-11-26T20:54:31.542Z,7.03
2017-11-26T20:57:00.347Z,6.70
2017-11-26T20:59:30.048Z,7.00
2017-11-26T21:01:58.937Z,7.03
2017-11-26T21:04:27.577Z,6.70
2017-11-26T21:06:56.307Z,7.73
2017-11-26T21:09:25.104Z,7.00
2017-11-26T21:11:53.892Z,6.93
2017-11-26T21:14:22.985Z,7.33
2017-11-26T21:16:51.876Z,6.73
2017-11-26T21:19:20.768Z,7.73
2017-11-26T21:21:49.818Z,8.20
2017-11-26T21:24:18.764Z,7.00
2017-11-26T21:26:47.646Z,7.00
2017-11-26T21:29:16.490Z,7.43
2017-11-26T21:31:45.161Z,8.60
2017-11-26T21:34:14.058Z,7.70
2017-11-26T21:36:43.211Z,7.33
2017-11-26T21:39:12.094Z,9.50
2017-11-26T21:41:40.989Z,10.20
2017-11-26T21:44:09.881Z,8.00
2017-11-26T21:46:38.564Z,6.80
2017-11-26T21:49:07.454Z,6.27
2017-11-26T21:51:36.343Z,6.00
2017-11-26T21:54:05.236Z,7.10
2017-11-26T21:56:34.128Z,6.50
2017-11-26T21:59:03.029Z,6.97
2017-11-26T22:01:31.907Z,5.00
2017-11-26T22:04:00.580Z,5.90
2017-11-26T22:06:29.245Z,5.17
2017-11-26T22:08:57.974Z,4.63
2017-11-26T22:11:26.810Z,5.53
2017-11-26T22:13:55.754Z,6.87
2017-11-26T22:16:24.435Z,5.47
2017-11-26T22:18:53.118Z,5.57
2017-11-26T22:21:22.010Z,5.70
2017-11-26T22:23:50.847Z,5.83
2017-11-26T22:26:19.587Z,5.93
2017-11-26T22:28:48.252Z,5.43
2017-11-26T22:31:16.996Z,5.50
2017-11-26T22:33:46.398Z,5.87
2017-11-26T22:36:15.137Z,26.00
2017-11-26T22:38:43.838Z,5.40
2017-11-26T22:41:12.736Z,6.17
2017-11-26T22:43:41.621Z,4.47
2017-11-26T22:46:10.309Z,4.53
2017-11-26T22:48:38.953Z,4.33
2017-11-26T22:51:07.680Z,4.53
2017-11-26T22:53:36.365Z,4.13
2017-11-26T22:56:05.050Z,4.20
2017-11-26T22:58:33.947Z,4.93
2017-11-26T23:01:02.835Z,3.60
2017-11-26T23:03:32.566Z,3.97
2017-11-26T23:06:02.048Z,3.70
2017-11-26T23:08:30.734Z,3.70
2017-11-26T23:10:59.364Z,4.17
2017-11-26T23:13:28.284Z,3.83
2017-11-26T23:15:57.713Z,3.80
2017-11-26T23:18:26.401Z,4.67
2017-11-26T23:20:55.292Z,3.80
2017-11-26T23:26:21.339Z,3.87
2017-11-26T23:28:50.023Z,3.97
2017-11-26T23:31:18.711Z,7.90
2017-11-26T23:33:47.408Z,5.67
2017-11-26T23:36:16.288Z,4.10
2017-11-26T23:38:45.178Z,3.83
2017-11-26T23:41:14.273Z,3.87
2017-11-26T23:43:42.958Z,3.23
2017-11-26T23:46:12.773Z,3.50
2017-11-26T23:48:41.617Z,3.37
2017-11-26T23:57:04.966Z,3.90
2017-11-26T23:59:33.651Z,3.40
